地図

経路データ

SID SEASON NUMBER BASIN SUBBASIN NAME ISO_TIME NATURE LAT LON WMO_WIND WMO_PRES WMO_AGENCY TRACK_TYPE DIST2LAND LANDFALL IFLAG USA_AGENCY USA_ATCF_ID USA_LAT USA_LON USA_RECORD USA_STATUS USA_WIND USA_PRES USA_SSHS USA_R34_NE USA_R34_SE USA_R34_SW USA_R34_NW USA_R50_NE USA_R50_SE USA_R50_SW USA_R50_NW USA_R64_NE USA_R64_SE USA_R64_SW USA_R64_NW USA_POCI USA_ROCI USA_RMW USA_EYE TOKYO_LAT TOKYO_LON TOKYO_GRADE TOKYO_WIND TOKYO_PRES TOKYO_R50_DIR TOKYO_R50_LONG TOKYO_R50_SHORT TOKYO_R30_DIR TOKYO_R30_LONG TOKYO_R30_SHORT TOKYO_LAND CMA_LAT CMA_LON CMA_CAT CMA_WIND CMA_PRES HKO_LAT HKO_LON HKO_CAT HKO_WIND HKO_PRES NEWDELHI_LAT NEWDELHI_LON NEWDELHI_GRADE NEWDELHI_WIND NEWDELHI_PRES NEWDELHI_CI NEWDELHI_DP NEWDELHI_POCI REUNION_LAT REUNION_LON REUNION_TYPE REUNION_WIND REUNION_PRES REUNION_TNUM REUNION_CI REUNION_RMW REUNION_R34_NE REUNION_R34_SE REUNION_R34_SW REUNION_R34_NW REUNION_R50_NE REUNION_R50_SE REUNION_R50_SW REUNION_R50_NW REUNION_R64_NE REUNION_R64_SE REUNION_R64_SW REUNION_R64_NW BOM_LAT BOM_LON BOM_TYPE BOM_WIND BOM_PRES BOM_TNUM BOM_CI BOM_RMW BOM_R34_NE BOM_R34_SE BOM_R34_SW BOM_R34_NW BOM_R50_NE BOM_R50_SE BOM_R50_SW BOM_R50_NW BOM_R64_NE BOM_R64_SE BOM_R64_SW BOM_R64_NW BOM_ROCI BOM_POCI BOM_EYE BOM_POS_METHOD BOM_PRES_METHOD NADI_LAT NADI_LON NADI_CAT NADI_WIND NADI_PRES WELLINGTON_LAT WELLINGTON_LON WELLINGTON_WIND WELLINGTON_PRES DS824_LAT DS824_LON DS824_STAGE DS824_WIND DS824_PRES TD9636_LAT TD9636_LON TD9636_STAGE TD9636_WIND TD9636_PRES TD9635_LAT TD9635_LON TD9635_WIND TD9635_PRES TD9635_ROCI NEUMANN_LAT NEUMANN_LON NEUMANN_CLASS NEUMANN_WIND NEUMANN_PRES MLC_LAT MLC_LON MLC_CLASS MLC_WIND MLC_PRES USA_GUST BOM_GUST BOM_GUST_PER REUNION_GUST REUNION_GUST_PER USA_SEAHGT USA_SEARAD_NE USA_SEARAD_SE USA_SEARAD_SW USA_SEARAD_NW STORM_SPEED STORM_DIR
1942056S10177 1942 12 SP MM NOT_NAMED 1942-02-25 00:00:00 NR -9.80000 177.200 main 769 762 __________O___ -1 -9.80000 177.200 2 4 100
1942056S10177 1942 12 SP MM NOT_NAMED 1942-02-25 03:00:00 NR -9.83913 177.419 main 762 744 __________P___ -1 -9.83913 177.419 2 4 100
1942056S10177 1942 12 SP MM NOT_NAMED 1942-02-25 06:00:00 NR -9.87255 177.640 main 744 734 __________P___ -1 -9.87255 177.640 2 4 97
1942056S10177 1942 12 SP MM NOT_NAMED 1942-02-25 09:00:00 NR -9.89470 177.866 main 734 729 __________P___ -1 -9.89470 177.866 2 5 93
1942056S10177 1942 12 SP MM NOT_NAMED 1942-02-25 12:00:00 NR -9.90000 178.100 main 729 723 __________O___ -1 -9.90000 178.100 2 5 89
1942056S10177 1942 12 SP MM NOT_NAMED 1942-02-25 15:00:00 NR -9.88691 178.340 main 723 717 __________P___ -1 -9.88691 178.340 2 5 86
1942056S10177 1942 12 SP MM NOT_NAMED 1942-02-25 18:00:00 NR -9.87006 178.568 main 717 713 __________P___ -1 -9.87006 178.568 2 4 87
1942056S10177 1942 12 SP MM NOT_NAMED 1942-02-25 21:00:00 NR -9.86817 178.762 main 713 712 __________P___ -1 -9.86817 178.762 2 3 95
1942056S10177 1942 12 SP MM NOT_NAMED 1942-02-26 00:00:00 NR -9.90000 178.900 main 712 699 __________O___ -1 -9.90000 178.900 2 2 123
1942056S10177 1942 12 SP MM NOT_NAMED 1942-02-26 03:00:00 NR -9.99712 178.958 main 699 688 __________P___ -1 -9.99712 178.958 2 2 166
1942056S10177 1942 12 SP MM NOT_NAMED 1942-02-26 06:00:00 NR -10.1274 178.960 main 688 667 __________P___ -1 -10.1274 178.960 2 3 0
1942056S10177 1942 12 SP MM NOT_NAMED 1942-02-26 09:00:00 NR -10.2690 178.933 main 667 656 __________P___ -1 -10.2690 178.933 2 3 190
1942056S10177 1942 12 SP MM NOT_NAMED 1942-02-26 12:00:00 NR -10.4000 178.900 main 656 645 __________O___ -1 -10.4000 178.900 2 2 187
1942056S10177 1942 12 SP MM NOT_NAMED 1942-02-26 15:00:00 NR -10.4691 178.912 main 645 645 __________P___ -1 -10.4691 178.912 2 1 0
1942056S10177 1942 12 SP MM NOT_NAMED 1942-02-26 18:00:00 NR -10.5275 178.922 main 645 634 __________P___ -1 -10.5275 178.922 2 1 0
1942056S10177 1942 12 SP MM NOT_NAMED 1942-02-26 21:00:00 NR -10.5972 178.921 main 634 623 __________P___ -1 -10.5972 178.921 2 2 0
1942056S10177 1942 12 SP MM NOT_NAMED 1942-02-27 00:00:00 NR -10.7000 178.900 main 623 601 __________O___ -1 -10.7000 178.900 2 3 194
1942056S10177 1942 12 SP MM NOT_NAMED 1942-02-27 03:00:00 NR -10.8681 178.855 main 601 581 __________P___ -1 -10.8681 178.855 2 4 196
1942056S10177 1942 12 SP MM NOT_NAMED 1942-02-27 06:00:00 NR -11.0700 178.788 main 581 561 __________P___ -1 -11.0700 178.788 2 4 199
1942056S10177 1942 12 SP MM NOT_NAMED 1942-02-27 09:00:00 NR -11.2869 178.702 main 561 541 __________P___ -1 -11.2869 178.702 2 5 203
1942056S10177 1942 12 SP MM NOT_NAMED 1942-02-27 12:00:00 NR -11.5000 178.600 main 541 522 __________O___ -1 -11.5000 178.600 2 4 208
1942056S10177 1942 12 SP MM NOT_NAMED 1942-02-27 15:00:00 NR -11.6740 178.497 main 522 515 __________P___ -1 -11.6740 178.497 2 4 212
1942056S10177 1942 12 SP MM NOT_NAMED 1942-02-27 18:00:00 NR -11.8425 178.380 main 515 497 __________P___ -1 -11.8425 178.380 2 4 216
1942056S10177 1942 12 SP MM NOT_NAMED 1942-02-27 21:00:00 NR -12.0147 178.247 main 500 483 __________P___ -1 -12.0147 178.247 2 5 218
1942056S10177 1942 12 SP MM NOT_NAMED 1942-02-28 00:00:00 NR -12.2000 178.100 main 483 465 __________O___ -1 -12.2000 178.100 2 5 217
1942056S10177 1942 12 SP MM NOT_NAMED 1942-02-28 03:00:00 NR -12.4188 177.939 main 469 452 __________P___ -1 -12.4188 177.939 2 6 216
1942056S10177 1942 12 SP MM NOT_NAMED 1942-02-28 06:00:00 NR -12.6500 177.765 main 442 430 __________P___ -1 -12.6500 177.765 2 6 217
1942056S10177 1942 12 SP MM NOT_NAMED 1942-02-28 09:00:00 NR -12.8813 177.583 main 430 417 __________P___ -1 -12.8813 177.583 2 6 218
1942056S10177 1942 12 SP MM NOT_NAMED 1942-02-28 12:00:00 NR -13.1000 177.400 main 417 401 __________O___ -1 -13.1000 177.400 2 5 221
1942056S10177 1942 12 SP MM NOT_NAMED 1942-02-28 15:00:00 NR -13.2812 177.229 main 405 394 __________P___ -1 -13.2812 177.229 2 5 224
1942056S10177 1942 12 SP MM NOT_NAMED 1942-02-28 18:00:00 NR -13.4499 177.057 main 398 382 __________P___ -1 -13.4499 177.057 2 5 225
1942056S10177 1942 12 SP MM NOT_NAMED 1942-02-28 21:00:00 NR -13.6187 176.882 main 387 377 __________P___ -1 -13.6187 176.882 2 5 225
1942056S10177 1942 12 SP MM NOT_NAMED 1942-03-01 00:00:00 NR -13.8000 176.700 main 377 364 __________O___ -1 -13.8000 176.700 2 5 223
1942056S10177 1942 12 SP MM NOT_NAMED 1942-03-01 03:00:00 NR -14.0065 176.515 main 370 359 __________P___ -1 -14.0065 176.515 2 6 221
1942056S10177 1942 12 SP MM NOT_NAMED 1942-03-01 06:00:00 NR -14.2274 176.322 main 365 356 __________P___ -1 -14.2274 176.322 2 6 220
1942056S10177 1942 12 SP MM NOT_NAMED 1942-03-01 09:00:00 NR -14.4596 176.118 main 356 356 __________P___ -1 -14.4596 176.118 2 6 221
1942056S10177 1942 12 SP MM NOT_NAMED 1942-03-01 12:00:00 NR -14.7000 175.900 main 356 342 __________O___ -1 -14.7000 175.900 2 6 221
1942056S10177 1942 12 SP MM NOT_NAMED 1942-03-01 15:00:00 NR -14.9386 175.684 main 348 334 __________P___ -1 -14.9386 175.684 2 7 222
1942056S10177 1942 12 SP MM NOT_NAMED 1942-03-01 18:00:00 NR -15.1847 175.452 main 334 332 __________P___ -1 -15.1847 175.452 2 7 223
1942056S10177 1942 12 SP MM NOT_NAMED 1942-03-01 21:00:00 NR -15.4385 175.194 main 339 331 __________P___ -1 -15.4385 175.194 2 7 226
1942056S10177 1942 12 SP MM NOT_NAMED 1942-03-02 00:00:00 NR -15.7000 174.900 main 340 340 __________O___ -1 -15.7000 174.900 2 8 229
1942056S10177 1942 12 SP MM NOT_NAMED 1942-03-02 03:00:00 NR -15.9802 174.549 main 356 356 __________P___ -1 -15.9802 174.549 2 9 231
1942056S10177 1942 12 SP MM NOT_NAMED 1942-03-02 06:00:00 NR -16.2653 174.165 main 370 370 __________P___ -1 -16.2653 174.165 2 9 233
1942056S10177 1942 12 SP MM NOT_NAMED 1942-03-02 09:00:00 NR -16.5427 173.774 main 398 393 __________P___ -1 -16.5427 173.774 2 9 234
1942056S10177 1942 12 SP MM NOT_NAMED 1942-03-02 12:00:00 NR -16.8000 173.400 main 425 425 __________O___ -1 -16.8000 173.400 2 8 235
1942056S10177 1942 12 SP MM NOT_NAMED 1942-03-02 15:00:00 NR -17.0172 173.078 main 449 449 __________P___ -1 -17.0172 173.078 2 7 235
1942056S10177 1942 12 SP MM NOT_NAMED 1942-03-02 18:00:00 NR -17.2146 172.777 main 474 474 __________P___ -1 -17.2146 172.777 2 7 235
1942056S10177 1942 12 SP MM NOT_NAMED 1942-03-02 21:00:00 NR -17.4047 172.487 main 502 480 __________P___ -1 -17.4047 172.487 2 7 235
1942056S10177 1942 12 SP MM NOT_NAMED 1942-03-03 00:00:00 NR -17.6000 172.200 main 480 455 __________O___ -1 -17.6000 172.200 2 7 233
1942056S10177 1942 12 SP MM NOT_NAMED 1942-03-03 03:00:00 NR -17.8217 171.900 main 455 432 __________P___ -1 -17.8217 171.900 2 7 232
1942056S10177 1942 12 SP MM NOT_NAMED 1942-03-03 06:00:00 NR -18.0498 171.600 main 432 412 __________P___ -1 -18.0498 171.600 2 7 231
1942056S10177 1942 12 SP MM NOT_NAMED 1942-03-03 09:00:00 NR -18.2780 171.300 main 417 400 __________P___ -1 -18.2780 171.300 2 7 232
1942056S10177 1942 12 SP MM NOT_NAMED 1942-03-03 12:00:00 NR -18.5000 171.000 main 400 386 __________O___ -1 -18.5000 171.000 2 7 231
1942056S10177 1942 12 SP MM NOT_NAMED 1942-03-03 15:00:00 NR -18.7066 170.732 main 386 384 __________P___ -1 -18.7066 170.732 2 7 232
1942056S10177 1942 12 SP MM NOT_NAMED 1942-03-03 18:00:00 NR -18.9066 170.459 main 384 369 __________P___ -1 -18.9066 170.459 2 7 234
1942056S10177 1942 12 SP MM NOT_NAMED 1942-03-03 21:00:00 NR -19.1033 170.157 main 377 366 __________P___ -1 -19.1033 170.157 2 7 237
1942056S10177 1942 12 SP MM NOT_NAMED 1942-03-03 23:00:00 NR -19.2343 169.927 main 366 366 __________P___ -1 -19.2343 169.927 2 8 240
1942056S10177 1942 12 SP MM NOT_NAMED 1942-03-04 00:00:00 NR -19.3000 169.800 main 368 361 __________O___ -1 -19.3000 169.800 2 9 245
1942056S10177 1942 12 SP MM NOT_NAMED 1942-03-04 03:00:00 NR -19.4965 169.341 main 361 339 __________P___ -1 -19.4965 169.341 2 10 247
1942056S10177 1942 12 SP MM NOT_NAMED 1942-03-04 06:00:00 NR -19.6933 168.830 main 333 281 __________P___ -1 -19.6933 168.830 2 11 248
1942056S10177 1942 12 SP MM NOT_NAMED 1942-03-04 09:00:00 NR -19.8933 168.304 main 281 252 __________P___ -1 -19.8933 168.304 2 11 248
1942056S10177 1942 12 SP MM NOT_NAMED 1942-03-04 11:00:00 NR -20.0301 167.963 main 252 230 __________P___ -1 -20.0301 167.963 2 10 246
1942056S10177 1942 12 SP MM NOT_NAMED 1942-03-04 12:00:00 NR -20.1000 167.800 main 230 187 __________O___ -1 -20.1000 167.800 2 9 242
1942056S10177 1942 12 SP MM NOT_NAMED 1942-03-04 15:00:00 NR -20.3127 167.395 main 187 145 __________P___ -1 -20.3127 167.395 2 9 240
1942056S10177 1942 12 SP MM NOT_NAMED 1942-03-04 18:00:00 NR -20.5335 167.014 main 145 103 __________P___ -1 -20.5335 167.014 2 9 238
1942056S10177 1942 12 SP MM NOT_NAMED 1942-03-04 21:00:00 NR -20.7626 166.626 main 93 70 __________P___ -1 -20.7626 166.626 2 9 238
1942056S10177 1942 12 SP MM NOT_NAMED 1942-03-04 23:00:00 NR -20.9200 166.348 main 70 56 __________P___ -1 -20.9200 166.348 2 9 239
1942056S10177 1942 12 SP MM NOT_NAMED 1942-03-05 00:00:00 NR -21.0000 166.200 main 56 10 __________O___ -1 -21.0000 166.200 2 11 243
1942056S10177 1942 12 SP MM NOT_NAMED 1942-03-05 03:00:00 NR -21.2433 165.673 main 10 0 __________P___ -1 -21.2433 165.673 2 11 244
1942056S10177 1942 12 SP MM NOT_NAMED 1942-03-05 06:00:00 NR -21.4933 165.108 main 10 10 __________P___ -1 -21.4933 165.108 2 12 245
1942056S10177 1942 12 SP MM NOT_NAMED 1942-03-05 09:00:00 NR -21.7465 164.539 main 53 53 __________P___ -1 -21.7465 164.539 2 12 244
1942056S10177 1942 12 SP MM NOT_NAMED 1942-03-05 11:00:00 NR -21.9156 164.174 main 91 99 __________P___ -1 -21.9156 164.174 2 11 243
1942056S10177 1942 12 SP MM NOT_NAMED 1942-03-05 12:00:00 NR -22.0000 164.000 main 114 114 __________O___ -1 -22.0000 164.000 2 10 241
1942056S10177 1942 12 SP MM NOT_NAMED 1942-03-05 15:00:00 NR -22.2366 163.554 main 161 161 __________P___ -1 -22.2366 163.554 2 9 239
1942056S10177 1942 12 SP MM NOT_NAMED 1942-03-05 18:00:00 NR -22.4759 163.141 main 222 222 __________P___ -1 -22.4759 163.141 2 9 237
1942056S10177 1942 12 SP MM NOT_NAMED 1942-03-05 21:00:00 NR -22.7273 162.732 main 269 269 __________P___ -1 -22.7273 162.732 2 9 236
1942056S10177 1942 12 SP MM NOT_NAMED 1942-03-05 23:00:00 NR -22.9062 162.448 main 307 307 __________P___ -1 -22.9062 162.448 2 10 236
1942056S10177 1942 12 SP MM NOT_NAMED 1942-03-06 00:00:00 NR -23.0000 162.300 main 321 321 __________O___ -1 -23.0000 162.300 2 11 237
1942056S10177 1942 12 SP MM NOT_NAMED 1942-03-06 03:00:00 NR -23.2953 161.799 main 382 382 __________P___ -1 -23.2953 161.799 2 11 237
1942056S10177 1942 12 SP MM NOT_NAMED 1942-03-06 06:00:00 NR -23.6125 161.272 main 443 443 __________P___ -1 -23.6125 161.272 2 12 236
1942056S10177 1942 12 SP MM NOT_NAMED 1942-03-06 09:00:00 NR -23.9484 160.734 main 513 513 __________P___ -1 -23.9484 160.734 2 12 235
1942056S10177 1942 12 SP MM NOT_NAMED 1942-03-06 11:00:00 NR -24.1812 160.376 main 557 565 __________P___ -1 -24.1812 160.376 2 12 234
1942056S10177 1942 12 SP MM NOT_NAMED 1942-03-06 12:00:00 NR -24.3000 160.200 main 580 580 __________O___ -1 -24.3000 160.200 2 12 234
1942056S10177 1942 12 SP EA NOT_NAMED 1942-03-06 15:00:00 NR -24.6522 159.676 main 636 584 __________P___ -1 -24.6522 159.676 2 12 233
1942056S10177 1942 12 SP EA NOT_NAMED 1942-03-06 18:00:00 NR -25.0197 159.162 main 584 534 __________P___ -1 -25.0197 159.162 2 12 231
1942056S10177 1942 12 SP EA NOT_NAMED 1942-03-06 21:00:00 NR -25.4024 158.667 main 534 506 __________P___ -1 -25.4024 158.667 2 12 229
1942056S10177 1942 12 SP EA NOT_NAMED 1942-03-06 23:00:00 NR -25.6658 158.352 main 508 489 __________P___ -1 -25.6658 158.352 2 12 227
1942056S10177 1942 12 SP EA NOT_NAMED 1942-03-07 00:00:00 NR -25.8000 158.200 main 489 457 __________O___ -1 -25.8000 158.200 2 12 226
1942056S10177 1942 12 SP EA NOT_NAMED 1942-03-07 03:00:00 NR -26.2023 157.731 main 451 406 __________P___ -1 -26.2023 157.731 2 12 225
1942056S10177 1942 12 SP EA NOT_NAMED 1942-03-07 06:00:00 NR -26.6200 157.295 main 406 351 __________P___ -1 -26.6200 157.295 2 11 221
1942056S10177 1942 12 SP EA NOT_NAMED 1942-03-07 09:00:00 NR -27.0526 156.912 main 347 320 __________P___ -1 -27.0526 156.912 2 11 216
1942056S10177 1942 12 SP EA NOT_NAMED 1942-03-07 11:00:00 NR -27.3492 156.695 main 320 304 __________P___ -1 -27.3492 156.695 2 11 212
1942056S10177 1942 12 SP EA NOT_NAMED 1942-03-07 12:00:00 NR -27.5000 156.600 main 304 266 __________O___ -1 -27.5000 156.600 2 10 210
1942056S10177 1942 12 SP EA NOT_NAMED 1942-03-07 15:00:00 NR -27.9437 156.306 main 266 244 __________P___ -1 -27.9437 156.306 2 10 206
1942056S10177 1942 12 SP EA NOT_NAMED 1942-03-07 18:00:00 NR -28.4040 156.092 main 245 233 __________P___ -1 -28.4040 156.092 2 10 197
1942056S10177 1942 12 SP EA NOT_NAMED 1942-03-07 21:00:00 NR -28.8874 155.982 main 233 233 __________P___ -1 -28.8874 155.982 2 10 187
1942056S10177 1942 12 SP EA NOT_NAMED 1942-03-07 23:00:00 NR -29.2255 155.978 main 235 237 __________P___ -1 -29.2255 155.978 2 10 178
1942056S10177 1942 12 SP EA NOT_NAMED 1942-03-08 00:00:00 NR -29.4000 156.000 main 239 239 __________O___ -1 -29.4000 156.000 2 12 170
1942056S10177 1942 12 SP EA NOT_NAMED 1942-03-08 03:00:00 NR -30.0067 156.131 main 268 268 __________P___ -1 -30.0067 156.131 2 13 165
1942056S10177 1942 12 SP EA NOT_NAMED 1942-03-08 06:00:00 NR -30.6318 156.393 main 307 307 __________P___ -1 -30.6318 156.393 2 13 156
1942056S10177 1942 12 SP EA NOT_NAMED 1942-03-08 09:00:00 NR -31.2160 156.759 main 351 351 __________P___ -1 -31.2160 156.759 2 13 149
1942056S10177 1942 12 SP EA NOT_NAMED 1942-03-08 11:00:00 NR -31.5535 157.047 main 373 383 __________P___ -1 -31.5535 157.047 2 12 142
1942056S10177 1942 12 SP EA NOT_NAMED 1942-03-08 12:00:00 NR -31.7000 157.200 main 394 394 __________O___ -1 -31.7000 157.200 2 11 132
1942056S10177 1942 12 SP EA NOT_NAMED 1942-03-08 15:00:00 NR -32.0411 157.688 main 446 446 __________P___ -1 -32.0411 157.688 2 10 123
1942056S10177 1942 12 SP EA NOT_NAMED 1942-03-08 18:00:00 NR -32.2620 158.207 main 499 499 __________P___ -1 -32.2620 158.207 2 10 112
1942056S10177 1942 12 SP EA NOT_NAMED 1942-03-08 21:00:00 NR -32.4019 158.748 main 548 548 __________P___ -1 -32.4019 158.748 2 10 105
1942056S10177 1942 12 SP EA NOT_NAMED 1942-03-08 23:00:00 NR -32.4695 159.116 main 587 587 __________P___ -1 -32.4695 159.116 2 10 102
1942056S10177 1942 12 SP EA NOT_NAMED 1942-03-09 00:00:00 NR -32.5000 159.300 main 605 __________O___ -1 -32.5000 159.300 2 10 101

デジタル台風データ・検索

IBTrACS Databaseについて

本データベースは、米国NOAAが公開する1842年以降の世界の熱帯低気圧のベストトラックデータアーカイブInternational Best Track Archive for Climate Stewardship (IBTrACS)を、ウェブで閲覧しやすい形式に変換したものです。

最終更新日:2021-11-26